createdAt,value
2022-09-13T00:04:58.086Z,0
2022-09-13T00:09:58.050Z,0
2022-09-13T00:14:58.063Z,0
2022-09-13T00:19:58.077Z,0
2022-09-13T00:24:58.051Z,0
2022-09-13T00:29:58.039Z,0
2022-09-13T00:34:58.062Z,0
2022-09-13T00:39:58.205Z,0
2022-09-13T00:44:58.023Z,0
2022-09-13T00:49:58.041Z,0
2022-09-13T00:54:58.034Z,0
2022-09-13T00:59:58.051Z,0
2022-09-13T01:04:58.034Z,0
2022-09-13T01:09:58.003Z,0
2022-09-13T01:14:57.999Z,0
2022-09-13T01:19:58.148Z,0
2022-09-13T01:24:58.019Z,0
2022-09-13T01:29:58.005Z,0
2022-09-13T01:34:57.979Z,0
2022-09-13T01:39:58.179Z,0
2022-09-13T01:44:58.054Z,0
2022-09-13T01:49:57.995Z,0
2022-09-13T01:54:58.011Z,0
2022-09-13T01:59:58.033Z,0
2022-09-13T02:04:58.009Z,0
2022-09-13T02:09:58.024Z,0
2022-09-13T02:14:58.032Z,0
2022-09-13T02:19:58.044Z,0
2022-09-13T02:24:58.039Z,0
2022-09-13T02:29:58.019Z,0
2022-09-13T02:34:58.018Z,0
2022-09-13T02:39:58.167Z,0
2022-09-13T02:44:57.995Z,0
2022-09-13T02:49:57.995Z,0
2022-09-13T02:54:58.021Z,0
2022-09-13T02:59:58.011Z,0
2022-09-13T03:04:57.994Z,0
2022-09-13T03:09:58.001Z,0
2022-09-13T03:14:57.987Z,0
2022-09-13T03:19:57.991Z,0
2022-09-13T03:24:57.974Z,0
2022-09-13T03:29:57.971Z,0
2022-09-13T03:34:57.970Z,0
2022-09-13T03:39:58.056Z,0
2022-09-13T03:44:58.002Z,0
2022-09-13T03:49:57.987Z,0
2022-09-13T03:54:57.976Z,0
2022-09-13T03:59:58.001Z,0
2022-09-13T04:04:57.943Z,0
2022-09-13T04:09:57.981Z,0
2022-09-13T04:14:57.949Z,0
2022-09-13T04:19:57.987Z,0
2022-09-13T04:25:01.600Z,0
2022-09-13T04:29:57.935Z,0
2022-09-13T04:34:57.975Z,0
2022-09-13T04:39:58.031Z,0
2022-09-13T04:44:57.932Z,0
2022-09-13T04:49:57.954Z,0
2022-09-13T04:54:57.972Z,0
2022-09-13T04:59:57.982Z,0
2022-09-13T05:04:57.926Z,0
2022-09-13T05:09:57.954Z,0
2022-09-13T05:14:57.951Z,0
2022-09-13T05:19:57.982Z,1
2022-09-13T05:24:57.922Z,6
2022-09-13T05:29:57.919Z,6
2022-09-13T05:34:57.918Z,6
2022-09-13T05:40:11.050Z,10
2022-09-13T05:44:57.951Z,8
2022-09-13T05:50:23.077Z,14
2022-09-13T05:54:57.937Z,14
2022-09-13T05:59:57.931Z,12
2022-09-13T06:04:57.943Z,15
2022-09-13T06:09:57.922Z,16
2022-09-13T06:14:57.941Z,21
2022-09-13T06:19:57.962Z,34
2022-09-13T06:24:57.934Z,42
2022-09-13T06:29:57.932Z,45
2022-09-13T06:34:57.926Z,39
2022-09-13T06:39:57.977Z,37
2022-09-13T06:44:57.882Z,55
2022-09-13T06:49:57.897Z,47
2022-09-13T06:54:57.930Z,54
2022-09-13T06:59:58.008Z,48
2022-09-13T07:04:57.885Z,42
2022-09-13T07:09:57.898Z,91
2022-09-13T07:14:57.922Z,83
2022-09-13T07:19:57.923Z,39
2022-09-13T07:24:57.898Z,23
2022-09-13T07:29:57.875Z,26
2022-09-13T07:34:57.919Z,37
2022-09-13T07:39:57.938Z,43
2022-09-13T07:44:57.876Z,45
2022-09-13T07:49:57.912Z,63
2022-09-13T07:54:57.912Z,69
2022-09-13T07:59:57.924Z,74
2022-09-13T08:04:57.910Z,69
2022-09-13T08:09:57.888Z,58
2022-09-13T08:14:58.155Z,56
2022-09-13T08:19:58.185Z,85
2022-09-13T08:24:58.136Z,113
2022-09-13T08:29:58.128Z,98
2022-09-13T08:34:58.161Z,74
2022-09-13T08:39:58.307Z,137
2022-09-13T08:44:58.176Z,143
2022-09-13T08:49:58.131Z,130
2022-09-13T08:54:58.598Z,126
2022-09-13T08:59:58.223Z,115
2022-09-13T09:04:58.126Z,122
2022-09-13T09:09:58.145Z,125
2022-09-13T09:14:58.118Z,105
2022-09-13T09:19:58.249Z,135
2022-09-13T09:24:58.125Z,156
2022-09-13T09:29:58.160Z,152
2022-09-13T09:34:58.134Z,174
2022-09-13T09:39:58.220Z,158
2022-09-13T09:44:58.128Z,136
2022-09-13T09:49:58.191Z,145
2022-09-13T09:54:58.126Z,161
2022-09-13T09:59:58.143Z,197
2022-09-13T10:04:58.124Z,207
2022-09-13T10:09:58.109Z,231
2022-09-13T10:14:58.114Z,326
2022-09-13T10:19:58.127Z,248
2022-09-13T10:24:58.092Z,86
2022-09-13T10:29:58.130Z,111
2022-09-13T10:34:58.106Z,145
2022-09-13T10:39:58.301Z,150
2022-09-13T10:44:58.113Z,207
2022-09-13T10:49:58.131Z,200
2022-09-13T10:54:58.124Z,134
2022-09-13T10:59:58.250Z,117
2022-09-13T11:04:58.075Z,104
2022-09-13T11:09:58.120Z,86
2022-09-13T11:14:58.105Z,62
2022-09-13T11:19:58.212Z,39
2022-09-13T11:24:58.126Z,92
2022-09-13T11:29:58.117Z,229
2022-09-13T11:34:58.275Z,379
2022-09-13T11:39:58.173Z,290
2022-09-13T11:44:58.081Z,93
2022-09-13T11:49:58.110Z,49
2022-09-13T11:54:58.084Z,24
2022-09-13T11:59:58.120Z,20
2022-09-13T12:05:18.313Z,42
2022-09-13T12:09:58.110Z,52
2022-09-13T12:14:58.100Z,48
2022-09-13T12:19:58.182Z,45
2022-09-13T12:24:58.102Z,94
2022-09-13T12:29:58.112Z,154
2022-09-13T12:34:58.096Z,176
2022-09-13T12:39:58.204Z,172
2022-09-13T12:44:58.111Z,160
2022-09-13T12:49:59.092Z,214
2022-09-13T12:54:58.058Z,205
2022-09-13T12:59:58.113Z,113
2022-09-13T13:04:58.074Z,72
2022-09-13T13:09:58.068Z,133
2022-09-13T13:14:58.078Z,131
2022-09-13T13:19:58.110Z,137
2022-09-13T13:24:58.074Z,166
2022-09-13T13:29:58.052Z,199
2022-09-13T13:34:58.084Z,152
2022-09-13T13:39:58.200Z,165
2022-09-13T13:44:58.041Z,247
2022-09-13T13:49:58.023Z,443
2022-09-13T13:54:58.039Z,498
2022-09-13T13:59:58.085Z,482
2022-09-13T14:04:58.091Z,501
2022-09-13T14:09:58.078Z,468
2022-09-13T14:14:58.083Z,469
2022-09-13T14:19:58.076Z,516
2022-09-13T14:24:58.056Z,366
2022-09-13T14:29:58.074Z,140
2022-09-13T14:34:58.045Z,76
2022-09-13T14:39:58.201Z,59
2022-09-13T14:44:58.054Z,111
2022-09-13T14:49:58.041Z,172
2022-09-13T14:54:58.041Z,241
2022-09-13T14:59:58.068Z,233
2022-09-13T15:04:58.122Z,243
2022-09-13T15:09:58.032Z,167
2022-09-13T15:14:58.020Z,149
2022-09-13T15:19:58.075Z,200
2022-09-13T15:24:58.039Z,196
2022-09-13T15:29:58.072Z,168
2022-09-13T15:34:58.008Z,139
2022-09-13T15:39:58.232Z,109
2022-09-13T15:44:58.042Z,77
2022-09-13T15:49:58.030Z,63
2022-09-13T15:54:58.017Z,51
2022-09-13T16:00:00.502Z,49
2022-09-13T16:04:58.034Z,53
2022-09-13T16:09:58.052Z,46
2022-09-13T16:14:58.033Z,30
2022-09-13T16:19:58.052Z,24
2022-09-13T16:24:58.046Z,23
2022-09-13T16:29:58.028Z,23
2022-09-13T16:34:58.003Z,29
2022-09-13T16:39:58.119Z,35
2022-09-13T16:44:58.014Z,36
2022-09-13T16:49:58.047Z,40
2022-09-13T16:54:58.035Z,35
2022-09-13T16:59:58.048Z,22
2022-09-13T17:04:58.008Z,19
2022-09-13T17:09:58.011Z,16
2022-09-13T17:14:58.035Z,17
2022-09-13T17:19:58.135Z,10
2022-09-13T17:24:58.009Z,12
2022-09-13T17:29:58.041Z,7
2022-09-13T17:34:57.994Z,3
2022-09-13T17:39:58.107Z,0
2022-09-13T17:44:58.040Z,0
2022-09-13T17:49:58.023Z,0
2022-09-13T17:54:58.030Z,0
2022-09-13T17:59:58.065Z,0
2022-09-13T18:04:59.583Z,0
2022-09-13T18:09:58.006Z,0
2022-09-13T18:14:58.002Z,0
2022-09-13T18:19:58.023Z,0
2022-09-13T18:24:58.023Z,0
2022-09-13T18:29:58.021Z,0
2022-09-13T18:34:57.978Z,0
2022-09-13T18:39:58.198Z,0
2022-09-13T18:44:57.972Z,0
2022-09-13T18:49:57.988Z,0
2022-09-13T18:54:57.977Z,0
2022-09-13T18:59:58.098Z,0
2022-09-13T19:04:57.994Z,0
2022-09-13T19:09:58.015Z,0
2022-09-13T19:14:57.981Z,0
2022-09-13T19:19:58.112Z,0
2022-09-13T19:24:57.998Z,0
2022-09-13T19:29:57.994Z,0
2022-09-13T19:34:57.966Z,0
2022-09-13T19:39:58.079Z,0
2022-09-13T19:44:58.000Z,0
2022-09-13T19:49:57.962Z,0
2022-09-13T19:54:57.949Z,0
2022-09-13T19:59:58.075Z,0
2022-09-13T20:04:58.037Z,0
2022-09-13T20:09:57.980Z,0
2022-09-13T20:14:57.983Z,0
2022-09-13T20:19:57.966Z,0
2022-09-13T20:24:57.983Z,0
2022-09-13T20:29:57.940Z,0
2022-09-13T20:34:57.962Z,0
2022-09-13T20:39:58.015Z,0
2022-09-13T20:44:57.969Z,0
2022-09-13T20:49:57.949Z,0
2022-09-13T20:54:57.953Z,0
2022-09-13T20:59:57.951Z,0
2022-09-13T21:04:57.935Z,0
2022-09-13T21:09:57.957Z,0
2022-09-13T21:14:57.941Z,0
2022-09-13T21:19:57.961Z,0
2022-09-13T21:24:57.927Z,0
2022-09-13T21:29:57.950Z,0
2022-09-13T21:34:57.954Z,0
2022-09-13T21:39:58.010Z,0
2022-09-13T21:44:57.958Z,0
2022-09-13T21:49:57.940Z,0
2022-09-13T21:54:57.925Z,0
2022-09-13T21:59:58.221Z,0
2022-09-13T22:04:58.170Z,0
2022-09-13T22:09:58.187Z,0
2022-09-13T22:14:58.178Z,0
2022-09-13T22:19:58.211Z,0
2022-09-13T22:24:58.180Z,0
2022-09-13T22:29:58.156Z,0
2022-09-13T22:34:58.163Z,0
2022-09-13T22:39:58.238Z,0
2022-09-13T22:44:58.143Z,0
2022-09-13T22:49:58.147Z,0
2022-09-13T22:54:58.170Z,0
2022-09-13T22:59:58.152Z,0
2022-09-13T23:04:58.145Z,0
2022-09-13T23:09:58.167Z,0
2022-09-13T23:14:58.155Z,0
2022-09-13T23:19:58.170Z,0
2022-09-13T23:24:58.166Z,0
2022-09-13T23:29:58.160Z,0
2022-09-13T23:34:58.131Z,0
2022-09-13T23:39:58.259Z,0
2022-09-13T23:44:58.128Z,0
2022-09-13T23:49:58.144Z,0
2022-09-13T23:54:58.123Z,0
2022-09-13T23:59:58.130Z,0
